Time;durP1;ratioP1;P1;durP2;ratioP2;P2;SDS_P1;SDS_P2;PMS_P1;PMS_P2;Temp;Humidity;BMP_temperature;BMP_pressure;BME280_temperature;BME280_humidity;BME280_pressure;Samples;Min_cycle;Max_cycle;Signal;HPM_P1;HPM_P2
2021/09/12 00:00:12;;;;;;;1036.18;935.50;;;;;;;;;;5015174;28;20048;-77
2021/09/12 00:02:38;;;;;;;1034.28;933.55;;;;;;;;;;5029077;28;20079;-79
2021/09/12 00:05:05;;;;;;;1042.03;940.97;;;;;;;;;;5009234;28;20025;-78
2021/09/12 00:07:31;;;;;;;1038.25;937.45;;;;;;;;;;5007604;28;20115;-78
2021/09/12 00:09:57;;;;;;;1036.50;935.60;;;;;;;;;;5001382;28;20029;-78
2021/09/12 00:12:23;;;;;;;1033.10;932.75;;;;;;;;;;5003296;28;20057;-78
2021/09/12 00:14:49;;;;;;;1035.47;934.47;;;;;;;;;;5006303;28;20672;-79
2021/09/12 00:17:15;;;;;;;1035.88;935.10;;;;;;;;;;5007989;28;20032;-78
2021/09/12 00:19:41;;;;;;;1036.20;935.50;;;;;;;;;;5025797;28;20160;-78
2021/09/12 00:22:07;;;;;;;1036.82;935.97;;;;;;;;;;5006876;28;20469;-78
2021/09/12 00:24:33;;;;;;;1029.22;928.83;;;;;;;;;;5025277;28;20021;-78
2021/09/12 00:26:59;;;;;;;1031.18;930.38;;;;;;;;;;5006088;28;20029;-78
2021/09/12 00:29:25;;;;;;;1038.50;937.25;;;;;;;;;;5008160;28;20476;-79
2021/09/12 00:31:51;;;;;;;1037.50;936.83;;;;;;;;;;5003635;28;20112;-78
2021/09/12 00:34:17;;;;;;;1031.13;930.35;;;;;;;;;;5003403;28;20117;-78
2021/09/12 00:36:44;;;;;;;1033.65;932.80;;;;;;;;;;5007144;28;20029;-79
2021/09/12 00:39:10;;;;;;;1028.57;928.13;;;;;;;;;;5007738;28;20025;-78
2021/09/12 00:41:43;;;;;;;1032.70;932.00;;;;;;;;;;5004479;28;20107;-78
2021/09/12 00:44:10;;;;;;;1023.20;923.08;;;;;;;;;;5010572;28;20575;-78
2021/09/12 00:46:40;;;;;;;1021.03;920.95;;;;;;;;;;5012021;28;20477;-79
2021/09/12 00:49:06;;;;;;;1022.53;922.25;;;;;;;;;;5025157;28;20025;-78
2021/09/12 00:51:32;;;;;;;1021.33;921.10;;;;;;;;;;5025108;28;20029;-78
2021/09/12 00:54:00;;;;;;;1023.15;922.83;;;;;;;;;;5024929;28;20022;-79
2021/09/12 00:56:27;;;;;;;1019.92;919.60;;;;;;;;;;5006558;28;20025;-78
2021/09/12 00:58:54;;;;;;;1018.63;918.58;;;;;;;;;;5006476;28;20022;-77
2021/09/12 01:01:20;;;;;;;1017.85;918.00;;;;;;;;;;5004802;28;20095;-78
2021/09/12 01:03:46;;;;;;;1024.68;924.33;;;;;;;;;;5006969;28;20473;-78
2021/09/12 01:06:12;;;;;;;1030.40;929.65;;;;;;;;;;5023978;28;20657;-78
2021/09/12 01:08:39;;;;;;;1019.90;919.65;;;;;;;;;;5022441;28;20034;-79
2021/09/12 01:11:06;;;;;;;1011.50;911.78;;;;;;;;;;5025231;28;20022;-78
2021/09/12 01:13:37;;;;;;;1014.38;914.53;;;;;;;;;;5006517;28;20737;-76
2021/09/12 01:16:11;;;;;;;1014.25;914.30;;;;;;;;;;5022048;28;20031;-79
2021/09/12 01:18:37;;;;;;;1017.65;917.58;;;;;;;;;;5005602;28;20072;-78
2021/09/12 01:21:03;;;;;;;1014.80;914.75;;;;;;;;;;5023319;28;20017;-78
2021/09/12 01:23:29;;;;;;;1012.60;912.83;;;;;;;;;;5023860;28;20383;-79
2021/09/12 01:25:55;;;;;;;1019.17;918.78;;;;;;;;;;5006538;28;20058;-78
2021/09/12 01:28:21;;;;;;;1012.30;912.42;;;;;;;;;;5000931;28;20091;-79
2021/09/12 01:30:47;;;;;;;1007.17;907.50;;;;;;;;;;5022559;28;20021;-78
2021/09/12 01:33:13;;;;;;;1009.80;910.10;;;;;;;;;;5024813;28;20029;-77
2021/09/12 01:35:39;;;;;;;1010.67;910.78;;;;;;;;;;5001579;28;20468;-77
2021/09/12 01:38:05;;;;;;;1017.30;917.15;;;;;;;;;;5024142;28;20219;-78
2021/09/12 01:40:31;;;;;;;1018.97;918.80;;;;;;;;;;5003344;28;20397;-79
2021/09/12 01:43:00;;;;;;;1009.90;910.10;;;;;;;;;;5008502;28;20022;-78
2021/09/12 01:45:26;;;;;;;1000.35;900.70;;;;;;;;;;5005620;28;20045;-79
2021/09/12 01:47:59;;;;;;;1012.05;912.15;;;;;;;;;;5001043;28;20091;-78
2021/09/12 01:50:25;;;;;;;1007.10;907.20;;;;;;;;;;5023921;28;20017;-79
2021/09/12 01:52:51;;;;;;;1008.00;908.15;;;;;;;;;;5023162;28;20029;-77
2021/09/12 01:55:17;;;;;;;1009.28;909.45;;;;;;;;;;5021960;28;20028;-78
2021/09/12 01:57:43;;;;;;;1005.17;905.50;;;;;;;;;;5005536;28;20064;-77
2021/09/12 02:00:09;;;;;;;999.30;899.78;;;;;;;;;;5003689;28;20267;-78
2021/09/12 02:02:35;;;;;;;1006.10;906.50;;;;;;;;;;5005851;28;20033;-77
2021/09/12 02:05:02;;;;;;;1003.75;904.15;;;;;;;;;;5002573;28;20032;-78
2021/09/12 02:07:28;;;;;;;1000.78;901.38;;;;;;;;;;5022909;28;20501;-78
2021/09/12 02:09:54;;;;;;;1003.42;903.78;;;;;;;;;;5021892;28;20056;-78
2021/09/12 02:12:20;;;;;;;1008.15;908.45;;;;;;;;;;5024257;28;20073;-78
2021/09/12 02:14:46;;;;;;;1005.63;905.88;;;;;;;;;;5019479;28;20036;-79
2021/09/12 02:17:12;;;;;;;1004.80;905.40;;;;;;;;;;5005654;28;20021;-78
2021/09/12 02:19:38;;;;;;;1005.58;905.97;;;;;;;;;;5006009;28;20041;-78
2021/09/12 02:22:04;;;;;;;1003.80;904.30;;;;;;;;;;5023253;28;20448;-78
2021/09/12 02:24:30;;;;;;;1010.13;910.25;;;;;;;;;;5005599;28;20405;-78
2021/09/12 02:26:56;;;;;;;1005.72;906.13;;;;;;;;;;5003405;28;20036;-78
2021/09/12 02:29:22;;;;;;;999.95;900.45;;;;;;;;;;5020707;28;20452;-78
2021/09/12 02:31:48;;;;;;;993.88;894.53;;;;;;;;;;5000609;28;20100;-78
2021/09/12 02:34:14;;;;;;;1001.10;901.53;;;;;;;;;;5022099;28;20021;-78
2021/09/12 02:36:40;;;;;;;997.90;898.42;;;;;;;;;;5019084;28;20033;-79
2021/09/12 02:39:06;;;;;;;990.65;891.58;;;;;;;;;;5004045;28;20029;-78
2021/09/12 02:41:32;;;;;;;997.35;897.53;;;;;;;;;;5003867;28;20500;-78
2021/09/12 02:43:58;;;;;;;995.92;896.50;;;;;;;;;;5021303;28;20038;-79
2021/09/12 02:46:24;;;;;;;993.17;893.47;;;;;;;;;;5021855;28;20030;-79
2021/09/12 02:48:51;;;;;;;1007.35;907.13;;;;;;;;;;5005467;28;20040;-78
2021/09/12 02:51:16;;;;;;;993.17;893.13;;;;;;;;;;5003277;28;20517;-78
2021/09/12 02:53:42;;;;;;;997.22;897.53;;;;;;;;;;5005374;28;20075;-77
2021/09/12 02:56:08;;;;;;;997.58;897.85;;;;;;;;;;5006539;28;20348;-79
2021/09/12 02:58:34;;;;;;;994.83;895.28;;;;;;;;;;5024947;28;20297;-78
2021/09/12 03:01:00;;;;;;;994.08;894.20;;;;;;;;;;5024294;28;20080;-78
2021/09/12 03:03:26;;;;;;;987.17;887.78;;;;;;;;;;5010910;28;20021;-78
2021/09/12 03:05:52;;;;;;;982.03;882.92;;;;;;;;;;5010699;28;20039;-78
2021/09/12 03:08:18;;;;;;;981.60;882.40;;;;;;;;;;5026206;28;20025;-78
2021/09/12 03:10:44;;;;;;;979.72;880.90;;;;;;;;;;5008502;28;20083;-78
2021/09/12 03:13:10;;;;;;;980.08;881.17;;;;;;;;;;5010973;28;20017;-78
2021/09/12 03:15:36;;;;;;;996.63;896.85;;;;;;;;;;5010406;28;20025;-78
2021/09/12 03:18:02;;;;;;;982.08;883.03;;;;;;;;;;5027807;28;20061;-78
2021/09/12 03:20:28;;;;;;;988.45;889.15;;;;;;;;;;5005703;28;20124;-78
2021/09/12 03:22:54;;;;;;;980.50;881.33;;;;;;;;;;5009170;28;20116;-78
2021/09/12 03:25:20;;;;;;;988.60;889.08;;;;;;;;;;5006669;28;20033;-77
2021/09/12 03:27:47;;;;;;;986.22;886.92;;;;;;;;;;5007491;28;20037;-78
2021/09/12 03:30:13;;;;;;;986.15;886.58;;;;;;;;;;5009460;28;20032;-77
2021/09/12 03:32:39;;;;;;;989.17;889.28;;;;;;;;;;5024667;28;20034;-78
2021/09/12 03:35:05;;;;;;;984.30;884.95;;;;;;;;;;5003328;28;20034;-78
2021/09/12 03:37:31;;;;;;;983.03;883.83;;;;;;;;;;5026263;28;20608;-78
2021/09/12 03:39:57;;;;;;;981.53;882.28;;;;;;;;;;5023524;28;20025;-78
2021/09/12 03:42:23;;;;;;;981.10;882.03;;;;;;;;;;5008409;28;20028;-79
2021/09/12 03:44:49;;;;;;;978.60;879.50;;;;;;;;;;5010094;28;20045;-79
2021/09/12 03:47:15;;;;;;;976.17;877.38;;;;;;;;;;5031973;28;20044;-78
2021/09/12 03:49:41;;;;;;;984.35;885.03;;;;;;;;;;5016892;28;20263;-78
2021/09/12 03:52:07;;;;;;;979.20;879.55;;;;;;;;;;5013416;28;20030;-78
2021/09/12 03:54:33;;;;;;;981.13;881.88;;;;;;;;;;5010948;28;20424;-78
2021/09/12 03:56:59;;;;;;;973.58;874.55;;;;;;;;;;5025809;28;20083;-79
2021/09/12 03:59:25;;;;;;;973.67;874.55;;;;;;;;;;5008045;28;20056;-79
2021/09/12 04:01:51;;;;;;;971.15;871.80;;;;;;;;;;5023581;28;20117;-78
2021/09/12 04:04:17;;;;;;;971.58;872.78;;;;;;;;;;5026232;28;20036;-78
2021/09/12 04:06:43;;;;;;;976.13;876.95;;;;;;;;;;5008349;28;20034;-78
2021/09/12 04:09:09;;;;;;;968.83;868.38;;;;;;;;;;5007491;28;20122;-78
2021/09/12 04:11:35;;;;;;;968.50;869.63;;;;;;;;;;5009142;28;20065;-78
2021/09/12 04:14:01;;;;;;;972.50;872.90;;;;;;;;;;5026363;28;20568;-78
2021/09/12 04:16:27;;;;;;;970.65;871.58;;;;;;;;;;5008468;28;20064;-78
2021/09/12 04:18:53;;;;;;;968.03;869.13;;;;;;;;;;5008384;28;20068;-78
2021/09/12 04:21:19;;;;;;;964.83;866.35;;;;;;;;;;5027759;28;20025;-78
2021/09/12 04:23:45;;;;;;;973.53;874.15;;;;;;;;;;5002156;28;20477;-78
2021/09/12 04:26:11;;;;;;;978.00;878.03;;;;;;;;;;5010133;28;20410;-78
2021/09/12 04:28:37;;;;;;;954.97;856.67;;;;;;;;;;5025625;28;20030;-79
2021/09/12 04:31:03;;;;;;;959.55;861.00;;;;;;;;;;5007435;28;20113;-79
2021/09/12 04:33:29;;;;;;;963.53;864.72;;;;;;;;;;5027927;28;20036;-79
2021/09/12 04:35:55;;;;;;;960.60;862.03;;;;;;;;;;5009114;28;20033;-78
2021/09/12 04:38:21;;;;;;;958.63;860.13;;;;;;;;;;5027928;28;20386;-78
2021/09/12 04:40:47;;;;;;;968.10;869.05;;;;;;;;;;5027141;28;20029;-78
2021/09/12 04:43:13;;;;;;;964.72;865.80;;;;;;;;;;5008540;28;20052;-78
2021/09/12 04:45:39;;;;;;;960.75;861.83;;;;;;;;;;5024703;28;20049;-79
2021/09/12 04:48:04;;;;;;;954.25;855.60;;;;;;;;;;5008508;28;20029;-79
2021/09/12 04:50:30;;;;;;;958.78;859.75;;;;;;;;;;5024743;28;20029;-79
2021/09/12 04:52:56;;;;;;;956.25;856.90;;;;;;;;;;5006077;28;20112;-79
2021/09/12 04:55:22;;;;;;;953.42;854.47;;;;;;;;;;5005956;28;20025;-78
2021/09/12 04:57:48;;;;;;;946.88;848.53;;;;;;;;;;5024634;28;20060;-77
2021/09/12 05:00:14;;;;;;;960.65;861.40;;;;;;;;;;5003185;28;20025;-77
2021/09/12 05:02:40;;;;;;;960.65;861.05;;;;;;;;;;5023929;28;20087;-79
2021/09/12 05:05:07;;;;;;;958.25;858.72;;;;;;;;;;5019121;28;20064;-78
2021/09/12 05:07:33;;;;;;;952.13;852.90;;;;;;;;;;5005966;28;20032;-79
2021/09/12 05:09:59;;;;;;;954.60;855.15;;;;;;;;;;5022198;28;20523;-78
2021/09/12 05:12:25;;;;;;;948.22;849.30;;;;;;;;;;5023197;28;20523;-78
2021/09/12 05:14:51;;;;;;;952.67;853.38;;;;;;;;;;5023627;28;20493;-78
2021/09/12 05:17:17;;;;;;;948.85;849.60;;;;;;;;;;5021161;28;20257;-77
2021/09/12 05:19:43;;;;;;;955.35;855.88;;;;;;;;;;5011457;28;20030;-79
2021/09/12 05:22:09;;;;;;;948.63;849.40;;;;;;;;;;5002993;28;20116;-78
2021/09/12 05:24:35;;;;;;;945.47;846.47;;;;;;;;;;5007601;28;20045;-78
2021/09/12 05:27:00;;;;;;;943.92;844.70;;;;;;;;;;5003236;28;20029;-78
2021/09/12 05:29:26;;;;;;;948.30;848.92;;;;;;;;;;5006958;28;20025;-78
2021/09/12 05:31:52;;;;;;;941.17;842.10;;;;;;;;;;5004472;28;20021;-78
2021/09/12 05:34:18;;;;;;;945.22;846.17;;;;;;;;;;5005148;28;20366;-79
2021/09/12 05:36:44;;;;;;;945.25;846.10;;;;;;;;;;5023338;28;20048;-78
2021/09/12 05:39:10;;;;;;;949.83;850.53;;;;;;;;;;5006870;28;20029;-77
2021/09/12 05:41:36;;;;;;;945.90;846.47;;;;;;;;;;5023089;28;20025;-78
2021/09/12 05:44:02;;;;;;;948.47;849.00;;;;;;;;;;5023673;28;20508;-78
2021/09/12 05:46:28;;;;;;;952.08;852.53;;;;;;;;;;5023780;28;20026;-77
2021/09/12 05:48:54;;;;;;;942.88;843.53;;;;;;;;;;5023335;28;20079;-79
2021/09/12 05:51:20;;;;;;;952.88;853.22;;;;;;;;;;5022796;28;20109;-76
2021/09/12 05:53:46;;;;;;;945.35;846.05;;;;;;;;;;5006726;28;20046;-77
2021/09/12 05:56:12;;;;;;;949.85;850.40;;;;;;;;;;5024317;28;20033;-79
2021/09/12 05:58:38;;;;;;;950.90;851.60;;;;;;;;;;5003665;28;20025;-78
2021/09/12 06:01:04;;;;;;;952.90;853.47;;;;;;;;;;5003103;28;20029;-78
2021/09/12 06:03:30;;;;;;;947.70;848.45;;;;;;;;;;5005611;28;20022;-78
2021/09/12 06:05:56;;;;;;;946.85;847.65;;;;;;;;;;5023950;28;20448;-78
2021/09/12 06:08:22;;;;;;;948.17;848.88;;;;;;;;;;5000801;28;20032;-78
2021/09/12 06:10:48;;;;;;;944.78;845.78;;;;;;;;;;5021809;28;20029;-79
2021/09/12 06:13:14;;;;;;;945.45;846.25;;;;;;;;;;5006534;28;20022;-79
2021/09/12 06:15:40;;;;;;;951.47;852.25;;;;;;;;;;5008084;28;20029;-77
2021/09/12 06:18:06;;;;;;;944.55;845.47;;;;;;;;;;5022821;28;20076;-78
2021/09/12 06:20:32;;;;;;;950.28;850.97;;;;;;;;;;5003342;28;20556;-77
2021/09/12 06:22:58;;;;;;;953.92;854.40;;;;;;;;;;5022563;28;20155;-77
2021/09/12 06:25:24;;;;;;;951.47;852.35;;;;;;;;;;5021796;28;20036;-78
2021/09/12 06:27:50;;;;;;;959.88;860.28;;;;;;;;;;5004673;28;20389;-78
2021/09/12 06:30:18;;;;;;;958.95;859.60;;;;;;;;;;5001363;28;20029;-77
2021/09/12 06:32:44;;;;;;;958.40;858.97;;;;;;;;;;5017820;28;20250;-79
2021/09/12 06:35:10;;;;;;;959.20;859.90;;;;;;;;;;5005955;28;20037;-78
2021/09/12 06:37:36;;;;;;;956.88;857.47;;;;;;;;;;5021476;28;20385;-77
2021/09/12 06:40:03;;;;;;;959.97;860.72;;;;;;;;;;5004494;28;20032;-78
2021/09/12 06:42:29;;;;;;;962.47;862.80;;;;;;;;;;5005134;28;20021;-78
2021/09/12 06:44:55;;;;;;;960.92;861.55;;;;;;;;;;5001513;28;20107;-78
2021/09/12 06:47:21;;;;;;;956.58;857.38;;;;;;;;;;5020903;28;20569;-78
2021/09/12 06:49:47;;;;;;;972.17;872.08;;;;;;;;;;5022808;28;20028;-78
2021/09/12 06:52:13;;;;;;;961.72;862.42;;;;;;;;;;5005052;28;20029;-78
2021/09/12 06:54:39;;;;;;;964.22;864.65;;;;;;;;;;5022766;28;20074;-78
2021/09/12 06:57:05;;;;;;;965.20;865.88;;;;;;;;;;5019537;28;20022;-78
2021/09/12 06:59:31;;;;;;;968.83;869.38;;;;;;;;;;5022041;28;20017;-79
2021/09/12 07:01:57;;;;;;;969.42;869.83;;;;;;;;;;5002791;28;20372;-78
2021/09/12 07:04:23;;;;;;;975.33;875.28;;;;;;;;;;5020862;28;20037;-79
2021/09/12 07:06:49;;;;;;;975.55;875.85;;;;;;;;;;5022027;28;20033;-77
2021/09/12 07:09:15;;;;;;;973.13;873.28;;;;;;;;;;5021732;28;20026;-78
2021/09/12 07:11:41;;;;;;;977.45;877.45;;;;;;;;;;5022955;28;20262;-78
2021/09/12 07:14:07;;;;;;;977.17;877.47;;;;;;;;;;5022130;28;20489;-79
2021/09/12 07:16:33;;;;;;;978.60;878.88;;;;;;;;;;5001726;28;20394;-79
2021/09/12 07:18:59;;;;;;;983.13;883.22;;;;;;;;;;5022207;28;20022;-78
2021/09/12 07:21:25;;;;;;;986.63;886.63;;;;;;;;;;5002139;28;20112;-78
2021/09/12 07:23:51;;;;;;;987.05;887.10;;;;;;;;;;5015527;28;20116;-78
2021/09/12 07:26:17;;;;;;;973.22;873.88;;;;;;;;;;5023224;28;20033;-78
2021/09/12 07:28:43;;;;;;;982.17;882.42;;;;;;;;;;5004000;28;20584;-79
2021/09/12 07:31:09;;;;;;;982.55;882.85;;;;;;;;;;5001348;28;20022;-79
2021/09/12 07:33:35;;;;;;;979.15;879.67;;;;;;;;;;5020926;28;20033;-79
2021/09/12 07:36:01;;;;;;;989.03;888.95;;;;;;;;;;5023151;28;20037;-78
2021/09/12 07:38:27;;;;;;;984.05;884.30;;;;;;;;;;5020463;28;20032;-76
2021/09/12 07:40:53;;;;;;;981.50;881.80;;;;;;;;;;5020238;28;20030;-77
2021/09/12 07:43:19;;;;;;;983.88;883.80;;;;;;;;;;5019937;28;20034;-79
2021/09/12 07:45:45;;;;;;;977.95;878.58;;;;;;;;;;5007779;28;20137;-79
2021/09/12 07:48:11;;;;;;;983.85;884.05;;;;;;;;;;5024805;28;20112;-78
2021/09/12 07:50:37;;;;;;;990.88;890.63;;;;;;;;;;5008720;28;20059;-78
2021/09/12 07:53:03;;;;;;;987.45;886.78;;;;;;;;;;5007063;28;20063;-78
2021/09/12 07:55:29;;;;;;;997.08;896.85;;;;;;;;;;5011010;28;20033;-79
2021/09/12 07:57:55;;;;;;;989.88;890.05;;;;;;;;;;5007772;28;20025;-79
2021/09/12 08:00:21;;;;;;;997.90;897.40;;;;;;;;;;5025773;28;20333;-79
2021/09/12 08:02:47;;;;;;;991.75;891.78;;;;;;;;;;5008638;28;20052;-79
2021/09/12 08:05:13;;;;;;;996.72;896.53;;;;;;;;;;5027496;28;20425;-79
2021/09/12 08:07:39;;;;;;;1002.22;901.97;;;;;;;;;;5004496;28;20054;-79
2021/09/12 08:10:05;;;;;;;1005.65;904.95;;;;;;;;;;5007131;28;20465;-79
2021/09/12 08:12:31;;;;;;;1009.67;908.97;;;;;;;;;;5005879;28;20140;-78
2021/09/12 08:14:57;;;;;;;1004.20;903.60;;;;;;;;;;5009750;28;20505;-78
2021/09/12 08:17:23;;;;;;;1017.75;916.75;;;;;;;;;;5025436;28;20021;-78
2021/09/12 08:19:49;;;;;;;1013.40;912.67;;;;;;;;;;5024368;28;20032;-79
2021/09/12 08:22:16;;;;;;;1006.78;906.50;;;;;;;;;;5004259;28;20072;-79
2021/09/12 08:24:42;;;;;;;1010.83;910.45;;;;;;;;;;5024961;28;20033;-78
2021/09/12 08:27:08;;;;;;;1009.40;908.70;;;;;;;;;;5007380;28;20029;-80
2021/09/12 08:29:34;;;;;;;1010.08;909.40;;;;;;;;;;5004959;28;20041;-79
2021/09/12 08:32:00;;;;;;;1010.90;910.33;;;;;;;;;;5004652;28;20029;-77
2021/09/12 08:34:27;;;;;;;1013.55;912.88;;;;;;;;;;5023740;28;20294;-79
2021/09/12 08:36:54;;;;;;;1014.63;913.78;;;;;;;;;;5003945;28;20029;-78
2021/09/12 08:39:20;;;;;;;1002.08;901.85;;;;;;;;;;5022784;28;20466;-79
2021/09/12 08:41:46;;;;;;;1016.30;915.40;;;;;;;;;;5024781;28;20030;-79
2021/09/12 08:44:16;;;;;;;1013.50;912.72;;;;;;;;;;5010213;28;20431;-79
2021/09/12 08:46:42;;;;;;;1020.25;918.25;;;;;;;;;;5000118;28;20044;-79
2021/09/12 08:49:08;;;;;;;1015.28;914.60;;;;;;;;;;5010073;28;20049;-78
2021/09/12 08:51:34;;;;;;;1013.00;912.58;;;;;;;;;;5028193;28;20045;-78
2021/09/12 08:54:00;;;;;;;1011.88;911.22;;;;;;;;;;5027440;28;20022;-79
2021/09/12 08:56:26;;;;;;;1022.53;921.60;;;;;;;;;;5027407;28;20025;-77
2021/09/12 08:58:52;;;;;;;1025.28;924.33;;;;;;;;;;5002075;28;20131;-79
2021/09/12 09:01:29;;;;;;;1047.05;945.05;;;;;;;;;;5002603;28;20025;-78
2021/09/12 09:03:59;;;;;;;1036.70;935.47;;;;;;;;;;5007858;28;20023;-79
2021/09/12 09:06:24;;;;;;;1039.43;937.85;;;;;;;;;;5007079;28;20171;-77
2021/09/12 09:08:50;;;;;;;1037.85;936.63;;;;;;;;;;5014484;28;20410;-78
2021/09/12 09:11:26;;;;;;;1034.45;933.17;;;;;;;;;;5006722;28;20056;-78
2021/09/12 09:13:52;;;;;;;1030.82;929.70;;;;;;;;;;5022809;28;20038;-78
2021/09/12 09:16:26;;;;;;;1036.38;932.55;;;;;;;;;;5007477;28;21321;-78
2021/09/12 09:19:00;;;;;;;1026.55;925.53;;;;;;;;;;5022154;28;20022;-78
2021/09/12 09:21:31;;;;;;;1021.28;920.67;;;;;;;;;;5002617;28;20034;-76
2021/09/12 09:23:57;;;;;;;;;;;;;;;;;;5022830;28;20033;-78
2021/09/12 09:26:23;;;;;;;1001.30;901.03;;;;;;;;;;5005857;28;19998;-78
2021/09/12 09:28:56;;;;;;;1014.70;914.28;;;;;;;;;;5022895;28;20022;-79
2021/09/12 09:31:25;;;;;;;1021.13;920.67;;;;;;;;;;5018758;28;20030;-78
2021/09/12 09:33:51;;;;;;;1023.10;922.40;;;;;;;;;;5023722;28;20042;-78
2021/09/12 09:36:20;;;;;;;1020.97;920.45;;;;;;;;;;5023571;28;20025;-78
2021/09/12 09:38:47;;;;;;;1020.17;919.80;;;;;;;;;;5004302;28;20473;-78
2021/09/12 09:41:13;;;;;;;1024.03;923.30;;;;;;;;;;5005627;28;20444;-77
2021/09/12 09:43:39;;;;;;;1043.00;941.20;;;;;;;;;;5003876;28;20021;-78
2021/09/12 09:46:05;;;;;;;1037.43;936.22;;;;;;;;;;5022645;28;20239;-78
2021/09/12 09:48:35;;;;;;;1041.88;940.45;;;;;;;;;;5005641;28;20788;-78
2021/09/12 09:51:04;;;;;;;1044.32;942.78;;;;;;;;;;5022349;28;20232;-77
2021/09/12 09:53:35;;;;;;;1051.40;949.38;;;;;;;;;;5004804;28;20033;-77
2021/09/12 09:56:02;;;;;;;1048.82;946.78;;;;;;;;;;5006695;28;20116;-78
2021/09/12 09:58:30;;;;;;;1054.72;952.38;;;;;;;;;;5023474;28;20025;-78
2021/09/12 10:00:56;;;;;;;1064.80;962.40;;;;;;;;;;5002049;28;20045;-78
2021/09/12 10:03:24;;;;;;;1065.30;962.80;;;;;;;;;;5005688;28;20037;-78
2021/09/12 10:05:50;;;;;;;1066.72;964.15;;;;;;;;;;5005533;28;20385;-77
2021/09/12 10:08:16;;;;;;;1071.70;968.80;;;;;;;;;;5006194;28;20029;-79
2021/09/12 10:10:44;;;;;;;1082.78;979.38;;;;;;;;;;5005369;28;20655;-77
2021/09/12 10:13:10;;;;;;;1078.75;975.70;;;;;;;;;;5022558;28;20547;-78
2021/09/12 10:15:38;;;;;;;1084.78;981.17;;;;;;;;;;5005671;28;20397;-78
2021/09/12 10:18:05;;;;;;;1086.50;983.45;;;;;;;;;;5004957;28;20021;-78
2021/09/12 10:20:33;;;;;;;1087.88;984.58;;;;;;;;;;5004393;28;20026;-77
2021/09/12 10:23:03;;;;;;;1081.47;978.38;;;;;;;;;;5020597;28;20065;-79
2021/09/12 10:25:30;;;;;;;1074.75;971.92;;;;;;;;;;5022742;28;20029;-77
2021/09/12 10:27:56;;;;;;;1086.45;983.17;;;;;;;;;;5003123;28;20037;-78
2021/09/12 10:30:22;;;;;;;1084.68;981.70;;;;;;;;;;5022218;28;20176;-77
2021/09/12 10:32:52;;;;;;;1087.55;984.30;;;;;;;;;;5025480;28;20029;-79
2021/09/12 10:35:24;;;;;;;1086.95;983.83;;;;;;;;;;5010386;28;20068;-79
2021/09/12 10:38:13;;;;;;;1085.28;982.25;;;;;;;;;;5003829;28;20029;-78
2021/09/12 10:40:49;;;;;;;1070.80;968.70;;;;;;;;;;4987312;28;20037;-78
2021/09/12 10:43:27;;;;;;;1081.22;978.40;;;;;;;;;;5003559;28;20881;-78
2021/09/12 10:46:02;;;;;;;1080.40;977.45;;;;;;;;;;5006132;28;20041;-79
2021/09/12 10:48:30;;;;;;;1078.63;975.95;;;;;;;;;;5020078;28;20048;-79
2021/09/12 10:50:56;;;;;;;1081.68;978.90;;;;;;;;;;5005352;28;20112;-78
2021/09/12 10:53:41;;;;;;;1082.25;979.30;;;;;;;;;;5005949;28;20057;-78
2021/09/12 10:56:07;;;;;;;1077.53;974.72;;;;;;;;;;4999917;28;20029;-77
2021/09/12 10:58:33;;;;;;;1083.30;980.45;;;;;;;;;;5005912;28;20079;-78
2021/09/12 11:01:00;;;;;;;1076.72;974.10;;;;;;;;;;5021106;28;20036;-76
2021/09/12 11:03:27;;;;;;;1075.65;973.17;;;;;;;;;;5017347;28;20068;-79
2021/09/12 11:05:53;;;;;;;1079.72;977.13;;;;;;;;;;5019640;28;20025;-78
2021/09/12 11:08:19;;;;;;;1081.10;978.40;;;;;;;;;;5022860;28;20021;-78
2021/09/12 11:10:54;;;;;;;1084.10;981.28;;;;;;;;;;5014984;28;20029;-78
2021/09/12 11:13:24;;;;;;;1082.78;980.05;;;;;;;;;;5004253;28;20025;-78
2021/09/12 11:15:51;;;;;;;1081.85;979.05;;;;;;;;;;5020024;28;20520;-79
2021/09/12 11:18:17;;;;;;;1091.90;988.60;;;;;;;;;;5005023;28;20127;-78
2021/09/12 11:20:44;;;;;;;1080.85;978.22;;;;;;;;;;5022259;28;20381;-78
2021/09/12 11:23:11;;;;;;;1093.78;990.38;;;;;;;;;;5009978;28;20459;-78
2021/09/12 11:25:38;;;;;;;1096.15;992.67;;;;;;;;;;5026618;28;20045;-78
2021/09/12 11:28:05;;;;;;;1099.93;995.47;;;;;;;;;;5006490;28;20031;-79
2021/09/12 11:30:31;;;;;;;1104.78;998.17;;;;;;;;;;5006249;28;20029;-77
2021/09/12 11:33:02;;;;;;;1113.10;999.90;;;;;;;;;;5025876;28;20037;-77
2021/09/12 11:35:28;;;;;;;1120.78;999.90;;;;;;;;;;5026489;28;20481;-78
2021/09/12 11:38:04;;;;;;;1127.55;999.90;;;;;;;;;;5007442;28;20115;-78
2021/09/12 11:40:30;;;;;;;1126.45;999.90;;;;;;;;;;5026075;28;20028;-79
2021/09/12 11:43:16;;;;;;;1130.72;999.90;;;;;;;;;;5005466;28;20401;-78
2021/09/12 11:45:42;;;;;;;1127.55;999.90;;;;;;;;;;5009873;28;20049;-79
2021/09/12 11:48:08;;;;;;;1132.38;999.90;;;;;;;;;;5019187;28;20100;-79
2021/09/12 11:50:35;;;;;;;1134.53;999.90;;;;;;;;;;5025838;28;20040;-78
2021/09/12 11:53:10;;;;;;;1136.38;999.90;;;;;;;;;;5029074;28;20022;-79
2021/09/12 11:55:40;;;;;;;1131.68;999.90;;;;;;;;;;5011683;28;20061;-78
2021/09/12 11:58:07;;;;;;;1139.80;999.90;;;;;;;;;;5030034;28;20033;-78
2021/09/12 12:00:37;;;;;;;1139.15;999.90;;;;;;;;;;5016202;28;20029;-79
2021/09/12 12:03:03;;;;;;;1151.43;999.90;;;;;;;;;;5027537;28;20393;-80
2021/09/12 12:05:30;;;;;;;1163.22;999.90;;;;;;;;;;5011009;28;20033;-79
2021/09/12 12:08:02;;;;;;;1167.03;999.90;;;;;;;;;;5020224;28;20110;-79
2021/09/12 12:10:30;;;;;;;1161.68;999.90;;;;;;;;;;5020547;28;20026;-79
2021/09/12 12:12:56;;;;;;;1167.20;999.90;;;;;;;;;;5011967;28;20030;-79
2021/09/12 12:15:30;;;;;;;1161.30;999.90;;;;;;;;;;5020896;28;20036;-78
2021/09/12 12:17:56;;;;;;;1153.03;999.90;;;;;;;;;;5028826;28;20021;-79
2021/09/12 12:20:22;;;;;;;1152.55;999.90;;;;;;;;;;5015935;28;20374;-79
2021/09/12 12:22:49;;;;;;;1153.53;999.90;;;;;;;;;;5028925;28;20036;-79
2021/09/12 12:25:27;;;;;;;1157.65;999.90;;;;;;;;;;5028461;28;20029;-79
2021/09/12 12:27:53;;;;;;;1137.15;999.90;;;;;;;;;;5023960;28;20057;-79
2021/09/12 12:30:19;;;;;;;1139.07;999.90;;;;;;;;;;5011361;28;20450;-79
2021/09/12 12:32:45;;;;;;;1148.22;999.90;;;;;;;;;;5020153;28;20072;-78
2021/09/12 12:35:15;;;;;;;1134.82;999.90;;;;;;;;;;5018597;28;20412;-79
2021/09/12 12:37:42;;;;;;;1131.05;999.90;;;;;;;;;;5021138;28;20029;-79
2021/09/12 12:40:09;;;;;;;1140.78;999.90;;;;;;;;;;5027252;28;20025;-79
2021/09/12 12:42:35;;;;;;;1131.65;999.90;;;;;;;;;;5011201;28;20470;-78
2021/09/12 12:45:16;;;;;;;1135.93;999.90;;;;;;;;;;5023380;28;20045;-79
2021/09/12 12:47:42;;;;;;;1136.75;999.90;;;;;;;;;;5030360;28;20033;-79
2021/09/12 12:50:08;;;;;;;1133.30;999.90;;;;;;;;;;5024149;28;20460;-79
2021/09/12 12:52:34;;;;;;;1127.10;999.90;;;;;;;;;;5023233;28;20310;-78
2021/09/12 12:55:00;;;;;;;1123.63;999.90;;;;;;;;;;5010151;28;20600;-79
2021/09/12 12:57:28;;;;;;;1132.70;999.90;;;;;;;;;;5019556;28;20049;-79
2021/09/12 12:59:54;;;;;;;1129.38;999.90;;;;;;;;;;5028909;28;20075;-78
2021/09/12 13:02:23;;;;;;;1121.97;999.90;;;;;;;;;;5017799;28;20718;-78
2021/09/12 13:04:49;;;;;;;1122.47;999.90;;;;;;;;;;5012695;28;20056;-78
2021/09/12 13:07:15;;;;;;;1123.95;999.90;;;;;;;;;;5019519;28;20065;-77
2021/09/12 13:09:41;;;;;;;1122.88;999.90;;;;;;;;;;5014531;28;20022;-77
2021/09/12 13:12:08;;;;;;;1114.88;999.90;;;;;;;;;;5015297;28;20072;-77
2021/09/12 13:14:35;;;;;;;1119.47;999.90;;;;;;;;;;5026189;28;20148;-78
2021/09/12 13:17:01;;;;;;;1116.25;999.90;;;;;;;;;;5029577;28;20285;-79
2021/09/12 13:19:27;;;;;;;1121.00;999.90;;;;;;;;;;5018271;28;20108;-77
2021/09/12 13:21:53;;;;;;;1123.60;999.90;;;;;;;;;;5029444;28;20032;-78
2021/09/12 13:24:19;;;;;;;1129.18;999.90;;;;;;;;;;5016594;28;20489;-78
2021/09/12 13:26:45;;;;;;;1117.53;999.90;;;;;;;;;;5010899;28;20437;-78
2021/09/12 13:29:11;;;;;;;1129.32;999.90;;;;;;;;;;5011305;28;20341;-78
2021/09/12 13:31:40;;;;;;;1124.63;999.90;;;;;;;;;;5024559;28;20389;-79
2021/09/12 13:34:06;;;;;;;1121.63;999.90;;;;;;;;;;5028680;28;20057;-79
2021/09/12 13:36:32;;;;;;;1122.25;999.90;;;;;;;;;;5029933;28;20079;-78
2021/09/12 13:38:58;;;;;;;1118.15;999.90;;;;;;;;;;5012343;28;20033;-78
2021/09/12 13:41:24;;;;;;;1112.53;999.90;;;;;;;;;;5016531;28;20022;-78
2021/09/12 13:43:50;;;;;;;1126.13;999.90;;;;;;;;;;5029786;28;20085;-79